Time;durP1;ratioP1;P1;durP2;ratioP2;P2;SDS_P1;SDS_P2;PMS_P1;PMS_P2;Temp;Humidity;BMP_temperature;BMP_pressure;BME280_temperature;BME280_humidity;BME280_pressure;Samples;Min_cycle;Max_cycle;Signal;HPM_P1;HPM_P2
2022/11/01 00:00:47;;;;;;;22.17;14.75;;;;;;;;;;5014133;28;20385;-79
2022/11/01 00:03:13;;;;;;;22.05;14.93;;;;;;;;;;5013075;28;20033;-79
2022/11/01 00:05:38;;;;;;;25.63;14.50;;;;;;;;;;5012925;28;20366;-79
2022/11/01 00:08:04;;;;;;;20.85;13.55;;;;;;;;;;5014279;28;20033;-79
2022/11/01 00:10:29;;;;;;;21.95;14.00;;;;;;;;;;5014405;28;20022;-79
2022/11/01 00:12:54;;;;;;;19.48;13.85;;;;;;;;;;4997155;28;20029;-79
2022/11/01 00:15:20;;;;;;;22.23;14.00;;;;;;;;;;5014713;28;20026;-79
2022/11/01 00:17:45;;;;;;;19.60;14.23;;;;;;;;;;5012724;28;20446;-79
2022/11/01 00:20:10;;;;;;;23.55;14.52;;;;;;;;;;5013672;28;20076;-79
2022/11/01 00:22:36;;;;;;;19.83;14.00;;;;;;;;;;5018299;28;20520;-78
2022/11/01 00:25:02;;;;;;;22.17;13.35;;;;;;;;;;5017887;28;20045;-79
2022/11/01 00:27:27;;;;;;;21.17;13.52;;;;;;;;;;5018109;28;20416;-79
2022/11/01 00:29:52;;;;;;;19.20;13.30;;;;;;;;;;5016524;28;20018;-79
2022/11/01 00:32:18;;;;;;;21.27;12.73;;;;;;;;;;5016524;28;20034;-79
2022/11/01 00:34:43;;;;;;;17.17;12.57;;;;;;;;;;4999894;28;20506;-79
2022/11/01 00:37:09;;;;;;;17.67;12.10;;;;;;;;;;5018170;28;20510;-79
2022/11/01 00:39:34;;;;;;;14.30;11.80;;;;;;;;;;5017479;28;20571;-79
2022/11/01 00:42:00;;;;;;;20.95;13.10;;;;;;;;;;5017478;28;20029;-79
2022/11/01 00:44:25;;;;;;;14.38;11.48;;;;;;;;;;5017719;28;20030;-78
2022/11/01 00:46:50;;;;;;;18.98;12.32;;;;;;;;;;5017375;28;20034;-78
2022/11/01 00:49:16;;;;;;;19.92;13.02;;;;;;;;;;5016127;28;20034;-79
2022/11/01 00:51:41;;;;;;;18.90;11.93;;;;;;;;;;5017577;28;20033;-79
2022/11/01 00:54:06;;;;;;;19.38;13.02;;;;;;;;;;5016025;28;20445;-79
2022/11/01 00:56:33;;;;;;;17.83;12.73;;;;;;;;;;5017212;28;20033;-79
2022/11/01 00:58:58;;;;;;;20.33;12.13;;;;;;;;;;5017410;28;20040;-78
2022/11/01 01:01:23;;;;;;;20.70;12.68;;;;;;;;;;5020244;28;20026;-78
2022/11/01 01:03:49;;;;;;;20.67;13.60;;;;;;;;;;5024989;28;20025;-78
2022/11/01 01:06:14;;;;;;;18.63;13.07;;;;;;;;;;5022696;28;20030;-78
2022/11/01 01:08:39;;;;;;;17.70;12.55;;;;;;;;;;5018766;28;20030;-79
2022/11/01 01:11:05;;;;;;;17.55;13.13;;;;;;;;;;5018266;28;20033;-79
2022/11/01 01:13:30;;;;;;;24.50;13.55;;;;;;;;;;5017609;28;20478;-79
2022/11/01 01:15:56;;;;;;;16.42;11.95;;;;;;;;;;5017786;28;20112;-79
2022/11/01 01:18:21;;;;;;;18.10;12.23;;;;;;;;;;5017147;28;20465;-79
2022/11/01 01:20:46;;;;;;;19.80;13.35;;;;;;;;;;5016964;28;20529;-79
2022/11/01 01:23:12;;;;;;;17.45;11.57;;;;;;;;;;5016957;28;20061;-78
2022/11/01 01:25:38;;;;;;;17.73;10.80;;;;;;;;;;5015702;28;20030;-78
2022/11/01 01:28:03;;;;;;;17.85;11.82;;;;;;;;;;5016734;28;20524;-78
2022/11/01 01:30:29;;;;;;;15.60;11.95;;;;;;;;;;5016866;28;20034;-78
2022/11/01 01:32:54;;;;;;;21.60;12.70;;;;;;;;;;5015215;28;20018;-79
2022/11/01 01:35:19;;;;;;;19.80;11.13;;;;;;;;;;5015183;28;20046;-78
2022/11/01 01:37:45;;;;;;;17.17;10.98;;;;;;;;;;4998917;28;20508;-78
2022/11/01 01:40:11;;;;;;;16.70;11.52;;;;;;;;;;5016683;28;20065;-78
2022/11/01 01:42:40;;;;;;;15.02;11.88;;;;;;;;;;5015145;28;20018;-78
2022/11/01 01:45:24;;;;;;;15.47;11.13;;;;;;;;;;5016638;28;20041;-78
2022/11/01 01:47:51;;;;;;;13.63;10.63;;;;;;;;;;5015373;28;20778;-78
2022/11/01 01:50:39;;;;;;;14.63;11.45;;;;;;;;;;5016310;28;20101;-78
2022/11/01 01:53:12;;;;;;;19.70;13.70;;;;;;;;;;5002033;28;20041;-78
2022/11/01 01:55:44;;;;;;;22.13;14.45;;;;;;;;;;5014910;28;20088;-78
2022/11/01 01:58:11;;;;;;;22.77;15.05;;;;;;;;;;5016052;28;20104;-78
2022/11/01 02:00:36;;;;;;;26.02;15.93;;;;;;;;;;5016377;28;20377;-78
2022/11/01 02:03:02;;;;;;;25.08;16.60;;;;;;;;;;5014830;28;20029;-78
2022/11/01 02:05:37;;;;;;;24.73;15.82;;;;;;;;;;5015969;28;20018;-79
2022/11/01 02:08:03;;;;;;;24.65;16.13;;;;;;;;;;5014651;28;20036;-78
2022/11/01 02:10:30;;;;;;;23.13;16.17;;;;;;;;;;5015002;28;20073;-78
2022/11/01 02:12:55;;;;;;;22.27;15.68;;;;;;;;;;5015845;28;20112;-78
2022/11/01 02:15:22;;;;;;;25.38;16.50;;;;;;;;;;5016087;28;20061;-78
2022/11/01 02:17:54;;;;;;;22.05;15.30;;;;;;;;;;5014517;28;20026;-78
2022/11/01 02:20:39;;;;;;;24.88;16.65;;;;;;;;;;5015668;28;20064;-78
2022/11/01 02:23:14;;;;;;;23.55;14.38;;;;;;;;;;5014980;28;20030;-78
2022/11/01 02:25:55;;;;;;;19.27;12.73;;;;;;;;;;5015906;28;20041;-78
2022/11/01 02:28:31;;;;;;;20.10;14.30;;;;;;;;;;5015521;28;20455;-78
2022/11/01 02:31:01;;;;;;;25.15;15.38;;;;;;;;;;5015500;28;20497;-78
2022/11/01 02:33:32;;;;;;;20.42;15.48;;;;;;;;;;5015488;28;20363;-78
2022/11/01 02:36:04;;;;;;;24.88;16.25;;;;;;;;;;5015192;28;20475;-78
2022/11/01 02:38:54;;;;;;;22.77;15.27;;;;;;;;;;5015506;28;20045;-78
2022/11/01 02:41:22;;;;;;;24.63;15.95;;;;;;;;;;5004697;28;20438;-78
2022/11/01 02:43:50;;;;;;;24.67;17.02;;;;;;;;;;5014559;28;20018;-78
2022/11/01 02:49:04;;;;;;;20.20;15.40;;;;;;;;;;5015438;28;20457;-78
2022/11/01 02:51:30;;;;;;;25.75;15.98;;;;;;;;;;5015093;28;20026;-78
2022/11/01 02:53:59;;;;;;;21.20;14.57;;;;;;;;;;5013802;28;20045;-78
2022/11/01 02:56:24;;;;;;;21.23;14.43;;;;;;;;;;5014156;28;20034;-78
2022/11/01 02:58:50;;;;;;;20.10;14.02;;;;;;;;;;5013997;28;20045;-78
2022/11/01 03:01:18;;;;;;;21.27;13.82;;;;;;;;;;5014935;28;20018;-78
2022/11/01 03:03:46;;;;;;;23.17;14.73;;;;;;;;;;5015161;28;20030;-78
2022/11/01 03:06:16;;;;;;;22.95;14.57;;;;;;;;;;5014832;28;20033;-78
2022/11/01 03:08:42;;;;;;;;;;;;;;;;;;5013961;28;20593;-78
2022/11/01 03:11:12;;;;;;;23.40;15.18;;;;;;;;;;5015339;28;19948;-78
2022/11/01 03:13:56;;;;;;;24.33;14.88;;;;;;;;;;5015014;28;20030;-78
2022/11/01 03:16:28;;;;;;;27.42;15.45;;;;;;;;;;5013418;28;20038;-78
2022/11/01 03:18:53;;;;;;;23.33;14.18;;;;;;;;;;5013987;28;20112;-78
2022/11/01 03:21:21;;;;;;;21.75;13.93;;;;;;;;;;5014956;28;20102;-78
2022/11/01 03:23:49;;;;;;;16.60;12.65;;;;;;;;;;5014806;28;20034;-78
2022/11/01 03:26:18;;;;;;;17.38;12.75;;;;;;;;;;5014834;28;20029;-78
2022/11/01 03:28:45;;;;;;;15.82;12.13;;;;;;;;;;5014773;28;20030;-78
2022/11/01 03:31:12;;;;;;;18.45;12.85;;;;;;;;;;5014416;28;20031;-78
2022/11/01 03:33:44;;;;;;;18.63;13.27;;;;;;;;;;5013535;28;20466;-78
2022/11/01 03:36:11;;;;;;;20.00;13.18;;;;;;;;;;5014219;28;20030;-78
2022/11/01 03:38:38;;;;;;;22.55;13.82;;;;;;;;;;5013844;28;20037;-78
2022/11/01 03:41:06;;;;;;;22.77;14.05;;;;;;;;;;5013004;28;20033;-78
2022/11/01 03:43:34;;;;;;;25.50;15.10;;;;;;;;;;5013351;28;20018;-78
2022/11/01 03:45:59;;;;;;;31.33;15.93;;;;;;;;;;5013066;28;20029;-78
2022/11/01 03:48:24;;;;;;;30.30;16.38;;;;;;;;;;5012922;28;20528;-78
2022/11/01 03:50:51;;;;;;;26.70;15.38;;;;;;;;;;5012857;28;20044;-78
2022/11/01 03:53:16;;;;;;;24.35;14.93;;;;;;;;;;5012950;28;20022;-78
2022/11/01 03:55:42;;;;;;;24.73;15.15;;;;;;;;;;5014318;28;20022;-78
2022/11/01 03:58:07;;;;;;;30.33;15.90;;;;;;;;;;5013952;28;20462;-78
2022/11/01 04:00:35;;;;;;;24.70;15.23;;;;;;;;;;5014319;28;20026;-78
2022/11/01 04:03:01;;;;;;;22.08;14.63;;;;;;;;;;5018094;28;20125;-79
2022/11/01 04:05:27;;;;;;;22.85;14.70;;;;;;;;;;5021324;28;20486;-79
2022/11/01 04:07:53;;;;;;;25.73;15.60;;;;;;;;;;5016907;28;20029;-78
2022/11/01 04:10:19;;;;;;;26.60;15.02;;;;;;;;;;5015647;28;20026;-78
2022/11/01 04:12:45;;;;;;;21.60;14.48;;;;;;;;;;5013684;28;20022;-77
2022/11/01 04:20:45;;;;;;;28.08;16.65;;;;;;;;;;5012954;28;20034;-78
2022/11/01 04:23:10;;;;;;;26.20;16.95;;;;;;;;;;5014314;28;20052;-77
2022/11/01 04:25:36;;;;;;;30.17;17.63;;;;;;;;;;5012595;28;20039;-78
2022/11/01 04:28:01;;;;;;;28.20;17.50;;;;;;;;;;5012539;28;20050;-78
2022/11/01 04:30:28;;;;;;;27.10;18.38;;;;;;;;;;5012451;28;20108;-78
2022/11/01 04:32:53;;;;;;;28.75;18.70;;;;;;;;;;5012450;28;20045;-77
2022/11/01 04:35:19;;;;;;;27.45;18.15;;;;;;;;;;5013515;28;20371;-78
2022/11/01 04:37:45;;;;;;;32.92;19.73;;;;;;;;;;5014227;28;20026;-78
2022/11/01 04:40:12;;;;;;;29.42;20.40;;;;;;;;;;5012750;28;20441;-78
2022/11/01 04:42:37;;;;;;;29.08;19.45;;;;;;;;;;5012359;28;20458;-77
2022/11/01 04:45:03;;;;;;;30.30;19.88;;;;;;;;;;5012386;28;20033;-77
2022/11/01 04:47:28;;;;;;;28.65;18.63;;;;;;;;;;4995945;28;20112;-78
2022/11/01 04:49:54;;;;;;;28.83;18.70;;;;;;;;;;5012276;28;20449;-77
2022/11/01 04:52:19;;;;;;;25.48;17.95;;;;;;;;;;5013502;28;20026;-77
2022/11/01 04:54:44;;;;;;;23.60;16.40;;;;;;;;;;5012216;28;20041;-78
2022/11/01 04:57:22;;;;;;;28.30;17.67;;;;;;;;;;5013484;28;20451;-77
2022/11/01 04:59:48;;;;;;;26.20;17.80;;;;;;;;;;5013626;28;20091;-78
2022/11/01 05:02:13;;;;;;;25.35;17.95;;;;;;;;;;5013394;28;20470;-77
2022/11/01 05:04:38;;;;;;;23.73;16.92;;;;;;;;;;5012196;28;20475;-77
2022/11/01 05:07:04;;;;;;;25.60;17.27;;;;;;;;;;5014486;28;20089;-77
2022/11/01 05:09:29;;;;;;;25.90;16.88;;;;;;;;;;5015779;28;20160;-78
2022/11/01 05:11:54;;;;;;;26.15;17.00;;;;;;;;;;5015797;28;20022;-78
2022/11/01 05:14:20;;;;;;;25.25;16.38;;;;;;;;;;5017232;28;20033;-77
2022/11/01 05:16:45;;;;;;;27.40;17.83;;;;;;;;;;5017157;28;20037;-78
2022/11/01 05:19:10;;;;;;;27.02;17.40;;;;;;;;;;5016820;28;20030;-77
2022/11/01 05:21:36;;;;;;;33.78;18.67;;;;;;;;;;5015542;28;20022;-77
2022/11/01 05:24:01;;;;;;;25.88;17.60;;;;;;;;;;5017024;28;20034;-77
2022/11/01 05:26:26;;;;;;;27.30;18.27;;;;;;;;;;4999180;28;20110;-77
2022/11/01 05:28:52;;;;;;;27.20;16.65;;;;;;;;;;5015764;28;20530;-77
2022/11/01 05:31:17;;;;;;;27.85;16.70;;;;;;;;;;5016692;28;20018;-78
2022/11/01 05:33:42;;;;;;;26.70;17.50;;;;;;;;;;5016767;28;20524;-77
2022/11/01 05:36:08;;;;;;;28.50;17.75;;;;;;;;;;5016552;28;20042;-78
2022/11/01 05:38:34;;;;;;;24.05;16.98;;;;;;;;;;5016478;28;20037;-78
2022/11/01 05:41:03;;;;;;;25.08;16.80;;;;;;;;;;5015408;28;20040;-78
2022/11/01 05:43:29;;;;;;;25.70;15.93;;;;;;;;;;5016995;28;20113;-77
2022/11/01 05:45:54;;;;;;;29.13;17.83;;;;;;;;;;5016620;28;20045;-77
2022/11/01 05:48:20;;;;;;;26.55;16.95;;;;;;;;;;5016354;28;20152;-78
2022/11/01 05:50:46;;;;;;;28.95;17.60;;;;;;;;;;5014985;28;20420;-77
2022/11/01 05:53:12;;;;;;;26.58;17.52;;;;;;;;;;5015008;28;20437;-77
2022/11/01 05:55:38;;;;;;;27.65;18.10;;;;;;;;;;5016156;28;20029;-77
2022/11/01 05:58:04;;;;;;;29.88;19.60;;;;;;;;;;5015428;28;20034;-77
2022/11/01 06:00:30;;;;;;;33.53;20.10;;;;;;;;;;5014850;28;20033;-77
2022/11/01 06:02:58;;;;;;;32.67;20.38;;;;;;;;;;5016010;28;20030;-78
2022/11/01 06:05:24;;;;;;;33.50;20.02;;;;;;;;;;5016302;28;20106;-77
2022/11/01 06:07:50;;;;;;;34.35;20.10;;;;;;;;;;5016202;28;20057;-77
2022/11/01 06:10:15;;;;;;;34.22;20.42;;;;;;;;;;5016188;28;20053;-77
2022/11/01 06:12:40;;;;;;;32.97;18.73;;;;;;;;;;5014557;28;20493;-77
2022/11/01 06:15:06;;;;;;;32.83;18.35;;;;;;;;;;5014668;28;20488;-77
2022/11/01 06:17:31;;;;;;;25.83;16.85;;;;;;;;;;5014784;28;20038;-77
2022/11/01 06:19:57;;;;;;;24.52;15.80;;;;;;;;;;5014469;28;20109;-77
2022/11/01 06:22:22;;;;;;;24.17;15.48;;;;;;;;;;5014424;28;20026;-77
2022/11/01 06:24:48;;;;;;;22.35;13.43;;;;;;;;;;5015638;28;20481;-77
2022/11/01 06:27:13;;;;;;;19.30;13.00;;;;;;;;;;5015826;28;20038;-77
2022/11/01 06:29:38;;;;;;;17.98;12.85;;;;;;;;;;5015839;28;20022;-77
2022/11/01 06:32:04;;;;;;;18.40;13.02;;;;;;;;;;5014253;28;20030;-77
2022/11/01 06:34:29;;;;;;;20.88;14.10;;;;;;;;;;5015288;28;20030;-78
2022/11/01 06:36:55;;;;;;;21.55;13.80;;;;;;;;;;5015710;28;20113;-77
2022/11/01 06:39:20;;;;;;;22.23;13.68;;;;;;;;;;5014392;28;20037;-78
2022/11/01 06:41:45;;;;;;;20.80;13.95;;;;;;;;;;5014252;28;20033;-78
2022/11/01 06:44:11;;;;;;;18.77;12.90;;;;;;;;;;5014227;28;20025;-78
2022/11/01 06:46:36;;;;;;;20.92;13.10;;;;;;;;;;5014037;28;20037;-77
2022/11/01 06:49:01;;;;;;;20.52;14.50;;;;;;;;;;5015237;28;20030;-77
2022/11/01 06:51:28;;;;;;;22.77;15.65;;;;;;;;;;5015410;28;20466;-78
2022/11/01 06:53:53;;;;;;;27.85;17.67;;;;;;;;;;5015129;28;20049;-78
2022/11/01 06:56:18;;;;;;;31.65;20.77;;;;;;;;;;5015127;28;20057;-78
2022/11/01 06:58:46;;;;;;;30.30;19.42;;;;;;;;;;5013745;28;20370;-78
2022/11/01 07:01:12;;;;;;;22.25;15.23;;;;;;;;;;5015012;28;20036;-78
2022/11/01 07:03:37;;;;;;;20.15;14.15;;;;;;;;;;5013813;28;20017;-77
2022/11/01 07:06:03;;;;;;;20.48;14.32;;;;;;;;;;5015516;28;20472;-78
2022/11/01 07:08:28;;;;;;;20.27;13.27;;;;;;;;;;5020798;28;20021;-78
2022/11/01 07:10:54;;;;;;;19.02;13.23;;;;;;;;;;5022407;28;20030;-78
2022/11/01 07:13:19;;;;;;;18.65;12.48;;;;;;;;;;5017852;28;20022;-78
2022/11/01 07:15:45;;;;;;;18.98;12.43;;;;;;;;;;5017781;28;20030;-78
2022/11/01 07:18:10;;;;;;;17.98;11.63;;;;;;;;;;5015707;28;20023;-78
2022/11/01 07:20:40;;;;;;;17.75;12.45;;;;;;;;;;5016351;28;20029;-78
2022/11/01 07:23:08;;;;;;;23.25;14.48;;;;;;;;;;5014933;28;20061;-78
2022/11/01 07:25:34;;;;;;;23.85;14.60;;;;;;;;;;5015712;28;20022;-78
2022/11/01 07:28:00;;;;;;;21.52;14.07;;;;;;;;;;5029199;23;20521;-77
2022/11/01 07:30:26;;;;;;;20.55;13.35;;;;;;;;;;5013370;28;20030;-77
2022/11/01 07:32:55;;;;;;;18.05;12.68;;;;;;;;;;5013584;28;20033;-77
2022/11/01 07:35:21;;;;;;;20.77;13.55;;;;;;;;;;5013315;28;20036;-77
2022/11/01 07:37:46;;;;;;;21.08;13.15;;;;;;;;;;5013175;28;20026;-77
2022/11/01 07:40:11;;;;;;;19.33;13.15;;;;;;;;;;5012996;28;20545;-77
2022/11/01 07:42:42;;;;;;;22.23;13.68;;;;;;;;;;5013030;28;20029;-77
2022/11/01 07:45:07;;;;;;;;;;;;;;;;;;5015030;28;20030;-77
2022/11/01 07:47:32;;;;;;;23.17;13.73;;;;;;;;;;5013015;28;19917;-77
2022/11/01 07:49:58;;;;;;;28.25;15.27;;;;;;;;;;5014182;28;20030;-77
2022/11/01 07:52:23;;;;;;;27.40;17.17;;;;;;;;;;5012894;28;20060;-77
2022/11/01 07:54:48;;;;;;;27.58;17.35;;;;;;;;;;5013272;28;20036;-77
2022/11/01 07:57:14;;;;;;;28.98;18.30;;;;;;;;;;5012849;28;20087;-77
2022/11/01 07:59:39;;;;;;;26.73;17.45;;;;;;;;;;5013359;28;20045;-77
2022/11/01 08:02:04;;;;;;;28.63;17.05;;;;;;;;;;4996381;28;20021;-78
2022/11/01 08:04:30;;;;;;;30.45;18.52;;;;;;;;;;5013982;28;20025;-77
2022/11/01 08:06:55;;;;;;;20.58;12.85;;;;;;;;;;5014241;28;20109;-77
2022/11/01 08:09:23;;;;;;;20.58;13.20;;;;;;;;;;5013942;28;20060;-77
2022/11/01 08:11:48;;;;;;;23.70;13.75;;;;;;;;;;5014206;28;20455;-78
2022/11/01 08:14:14;;;;;;;18.40;12.35;;;;;;;;;;5013840;28;20121;-77
2022/11/01 08:16:39;;;;;;;19.13;12.32;;;;;;;;;;5014384;28;20101;-77
2022/11/01 08:19:04;;;;;;;16.83;11.73;;;;;;;;;;5013735;28;20057;-77
2022/11/01 08:21:30;;;;;;;23.65;13.05;;;;;;;;;;5013864;28;20025;-77
2022/11/01 08:23:55;;;;;;;22.38;12.85;;;;;;;;;;5013771;28;20112;-77
2022/11/01 08:26:20;;;;;;;29.63;16.17;;;;;;;;;;5014576;28;20014;-77
2022/11/01 08:28:47;;;;;;;21.73;13.88;;;;;;;;;;5012307;28;20079;-78
2022/11/01 08:31:12;;;;;;;21.52;12.52;;;;;;;;;;5013685;28;20034;-78
2022/11/01 08:33:38;;;;;;;17.98;10.85;;;;;;;;;;5013688;28;20092;-78
2022/11/01 08:36:03;;;;;;;16.42;10.70;;;;;;;;;;4996505;28;20042;-78
2022/11/01 08:38:29;;;;;;;13.48;8.18;;;;;;;;;;5013869;28;20022;-78
2022/11/01 08:40:54;;;;;;;11.43;8.20;;;;;;;;;;5014417;28;20030;-78
2022/11/01 08:43:20;;;;;;;14.65;8.57;;;;;;;;;;5016344;28;20037;-78
2022/11/01 08:45:45;;;;;;;12.40;9.50;;;;;;;;;;5017774;28;20026;-78
2022/11/01 08:48:10;;;;;;;13.07;8.82;;;;;;;;;;5017587;28;20022;-78
2022/11/01 08:50:37;;;;;;;14.65;9.55;;;;;;;;;;5017697;28;20022;-78
2022/11/01 08:53:04;;;;;;;13.60;8.93;;;;;;;;;;5017934;28;20061;-78
2022/11/01 08:55:29;;;;;;;12.43;9.60;;;;;;;;;;5016102;28;20444;-78
2022/11/01 08:57:57;;;;;;;17.33;9.07;;;;;;;;;;4999761;28;20017;-78
2022/11/01 09:00:22;;;;;;;13.15;8.60;;;;;;;;;;5016336;28;20052;-78
2022/11/01 09:02:47;;;;;;;13.35;8.35;;;;;;;;;;5017194;28;20018;-78
2022/11/01 09:05:13;;;;;;;12.35;8.50;;;;;;;;;;5017121;28;20054;-78
2022/11/01 09:07:38;;;;;;;17.17;10.95;;;;;;;;;;5017782;28;20025;-77
2022/11/01 09:10:05;;;;;;;18.75;11.73;;;;;;;;;;5017567;28;20033;-77
2022/11/01 09:12:30;;;;;;;33.63;15.40;;;;;;;;;;5015754;28;20120;-78
2022/11/01 09:14:56;;;;;;;23.58;12.38;;;;;;;;;;5015738;28;20068;-77
2022/11/01 09:17:21;;;;;;;13.63;10.68;;;;;;;;;;5015675;28;20076;-78
2022/11/01 09:19:47;;;;;;;17.10;10.20;;;;;;;;;;5015612;28;20108;-77
2022/11/01 09:22:12;;;;;;;17.17;10.63;;;;;;;;;;5015585;28;20478;-78
2022/11/01 09:24:38;;;;;;;15.75;11.57;;;;;;;;;;5016829;28;20382;-78
2022/11/01 09:27:05;;;;;;;14.15;10.43;;;;;;;;;;5016741;28;20022;-77
2022/11/01 09:29:30;;;;;;;11.95;9.15;;;;;;;;;;5015525;28;20088;-77
2022/11/01 09:31:56;;;;;;;11.18;7.22;;;;;;;;;;5016898;28;20121;-77
2022/11/01 09:34:21;;;;;;;11.80;7.20;;;;;;;;;;5016860;28;20030;-77
2022/11/01 09:36:47;;;;;;;11.80;7.65;;;;;;;;;;5016850;28;20057;-77
2022/11/01 09:39:15;;;;;;;11.10;7.80;;;;;;;;;;5016464;28;20047;-77
2022/11/01 09:42:01;;;;;;;9.52;7.72;;;;;;;;;;4998925;28;20014;-77
2022/11/01 09:44:38;;;;;;;10.27;7.50;;;;;;;;;;5015516;28;20030;-78
2022/11/01 09:47:06;;;;;;;9.60;6.95;;;;;;;;;;5016663;28;20076;-78
2022/11/01 09:49:34;;;;;;;10.93;7.88;;;;;;;;;;5021985;28;20026;-78
2022/11/01 09:51:59;;;;;;;10.88;8.35;;;;;;;;;;5024016;28;20109;-79
2022/11/01 09:54:25;;;;;;;9.80;7.47;;;;;;;;;;5020300;28;20052;-78
2022/11/01 09:57:09;;;;;;;8.93;6.45;;;;;;;;;;5019586;28;20430;-78
2022/11/01 09:59:44;;;;;;;11.43;7.05;;;;;;;;;;5017903;28;20081;-79
2022/11/01 10:02:29;;;;;;;10.32;7.07;;;;;;;;;;5016714;28;20474;-78
2022/11/01 10:05:04;;;;;;;9.65;6.82;;;;;;;;;;5017474;28;20029;-78
2022/11/01 10:07:48;;;;;;;9.02;6.60;;;;;;;;;;5017209;28;20030;-78
2022/11/01 10:10:16;;;;;;;7.18;5.90;;;;;;;;;;5015846;28;20089;-78
2022/11/01 10:12:54;;;;;;;9.75;6.60;;;;;;;;;;5016999;28;20053;-78
2022/11/01 10:15:31;;;;;;;11.60;6.07;;;;;;;;;;5015811;28;20034;-78
2022/11/01 10:18:02;;;;;;;10.82;6.78;;;;;;;;;;5015883;28;20445;-78
2022/11/01 10:20:31;;;;;;;9.25;5.88;;;;;;;;;;5015021;28;20033;-78
2022/11/01 10:22:58;;;;;;;9.50;5.57;;;;;;;;;;5016480;28;20355;-78
2022/11/01 10:25:32;;;;;;;7.30;5.22;;;;;;;;;;5016220;28;20061;-78
2022/11/01 10:28:06;;;;;;;8.18;5.05;;;;;;;;;;5013961;28;20073;-78
2022/11/01 10:30:35;;;;;;;7.68;4.60;;;;;;;;;;5016065;28;20037;-78
2022/11/01 10:33:08;;;;;;;6.57;5.00;;;;;;;;;;5016091;28;20018;-78
2022/11/01 10:35:36;;;;;;;6.38;4.90;;;;;;;;;;5015704;28;20113;-78
2022/11/01 10:38:06;;;;;;;7.35;4.72;;;;;;;;;;5015649;28;20030;-78
2022/11/01 10:40:37;;;;;;;5.55;4.30;;;;;;;;;;5015541;28;20053;-78
2022/11/01 10:43:10;;;;;;;7.35;4.38;;;;;;;;;;5014378;28;20116;-78
2022/11/01 10:45:35;;;;;;;8.60;5.10;;;;;;;;;;5015555;28;20024;-78
2022/11/01 10:48:02;;;;;;;7.07;4.38;;;;;;;;;;5015449;28;20510;-78
2022/11/01 10:50:28;;;;;;;6.50;4.55;;;;;;;;;;5015409;28;20108;-78
2022/11/01 10:52:57;;;;;;;5.75;3.92;;;;;;;;;;5015571;28;20056;-78
2022/11/01 10:55:43;;;;;;;6.78;4.85;;;;;;;;;;5014001;28;20056;-78
2022/11/01 10:58:23;;;;;;;7.22;4.43;;;;;;;;;;5014892;28;20069;-78
2022/11/01 11:00:49;;;;;;;7.35;4.78;;;;;;;;;;5014195;28;20537;-78
2022/11/01 11:03:17;;;;;;;7.00;4.28;;;;;;;;;;4997237;28;20110;-78
2022/11/01 11:05:44;;;;;;;5.75;4.00;;;;;;;;;;4997073;28;20030;-78
2022/11/01 11:08:13;;;;;;;6.55;3.80;;;;;;;;;;5013717;28;20014;-78
2022/11/01 11:10:41;;;;;;;4.57;3.92;;;;;;;;;;5014908;28;20429;-78
2022/11/01 11:13:08;;;;;;;6.13;4.28;;;;;;;;;;5014740;28;20354;-78
2022/11/01 11:15:39;;;;;;;5.03;4.03;;;;;;;;;;5015136;28;20041;-78
2022/11/01 11:18:11;;;;;;;4.63;3.95;;;;;;;;;;5015309;28;20038;-78
2022/11/01 11:20:37;;;;;;;6.75;3.95;;;;;;;;;;5014630;28;20057;-78
2022/11/01 11:23:02;;;;;;;6.05;4.18;;;;;;;;;;5013803;28;20524;-78
2022/11/01 11:25:35;;;;;;;6.13;4.07;;;;;;;;;;5014917;28;20117;-78
2022/11/01 11:28:01;;;;;;;5.72;4.10;;;;;;;;;;5013226;28;20072;-78
2022/11/01 11:30:31;;;;;;;4.63;3.58;;;;;;;;;;5014850;28;20034;-78
2022/11/01 11:32:57;;;;;;;6.35;4.18;;;;;;;;;;5013368;28;20033;-78
2022/11/01 11:37:59;;;;;;;6.88;4.10;;;;;;;;;;5071359;22;20053;-77
2022/11/01 11:40:25;;;;;;;4.78;3.92;;;;;;;;;;5014863;28;20103;-77
2022/11/01 11:42:52;;;;;;;4.38;3.65;;;;;;;;;;5013117;28;20014;-77
2022/11/01 11:45:17;;;;;;;4.25;3.10;;;;;;;;;;5014280;28;20030;-77
2022/11/01 11:50:16;;;;;;;5.07;3.90;;;;;;;;;;4966386;28;20062;-77
2022/11/01 11:52:42;;;;;;;8.43;4.30;;;;;;;;;;4937286;29;20031;-77
2022/11/01 11:55:33;;;;;;;6.97;4.47;;;;;;;;;;4954857;29;20046;-77
2022/11/01 11:57:58;;;;;;;6.93;3.90;;;;;;;;;;4941903;29;20035;-78
2022/11/01 12:00:25;;;;;;;6.72;3.90;;;;;;;;;;4974046;28;20034;-78
2022/11/01 12:02:51;;;;;;;6.60;4.00;;;;;;;;;;4940123;29;20079;-77
2022/11/01 12:05:18;;;;;;;4.93;4.32;;;;;;;;;;4939232;29;20020;-77
2022/11/01 12:07:45;;;;;;;7.40;4.15;;;;;;;;;;4937891;29;20106;-77
2022/11/01 12:10:29;;;;;;;5.85;4.47;;;;;;;;;;4953280;29;20031;-77
2022/11/01 12:12:55;;;;;;;8.40;4.68;;;;;;;;;;4937961;29;20461;-77
2022/11/01 12:15:34;;;;;;;4.45;3.90;;;;;;;;;;4936830;29;20028;-77
2022/11/01 12:18:13;;;;;;;5.85;4.22;;;;;;;;;;4937028;29;20036;-78
2022/11/01 12:20:38;;;;;;;6.25;4.10;;;;;;;;;;4936828;29;20044;-78
2022/11/01 12:23:09;;;;;;;5.25;4.30;;;;;;;;;;4951561;29;20031;-78
2022/11/01 12:25:35;;;;;;;4.38;3.55;;;;;;;;;;4936439;29;20057;-78
2022/11/01 12:28:02;;;;;;;7.22;4.13;;;;;;;;;;4936589;29;20051;-78
2022/11/01 12:30:32;;;;;;;5.72;4.28;;;;;;;;;;4936869;29;20540;-78
2022/11/01 12:32:58;;;;;;;3.92;3.17;;;;;;;;;;4936252;29;20031;-78
2022/11/01 12:35:27;;;;;;;6.18;4.32;;;;;;;;;;4919402;29;20471;-78
2022/11/01 12:37:58;;;;;;;7.88;4.10;;;;;;;;;;4936644;29;20035;-78
2022/11/01 12:40:23;;;;;;;;;;;;;;;;;;4936927;29;20107;-78
2022/11/01 12:42:50;;;;;;;7.00;3.92;;;;;;;;;;4936641;29;20323;-78
2022/11/01 12:45:33;;;;;;;4.70;4.13;;;;;;;;;;4934997;29;20027;-78
2022/11/01 12:48:01;;;;;;;5.55;3.88;;;;;;;;;;4937158;29;20447;-78
2022/11/01 12:50:56;;;;;;;5.47;4.07;;;;;;;;;;4955997;28;20062;-78
2022/11/01 12:53:28;;;;;;;5.28;3.63;;;;;;;;;;4955170;28;20047;-78
2022/11/01 12:55:55;;;;;;;5.47;4.90;;;;;;;;;;4955764;29;20027;-79
2022/11/01 12:58:21;;;;;;;6.38;4.53;;;;;;;;;;4955508;28;20042;-79
2022/11/01 13:01:00;;;;;;;5.25;4.00;;;;;;;;;;4955446;28;20086;-79
2022/11/01 13:03:28;;;;;;;5.32;4.18;;;;;;;;;;4953995;28;20055;-78
2022/11/01 13:05:54;;;;;;;6.63;4.25;;;;;;;;;;4970304;28;20484;-78
2022/11/01 13:08:25;;;;;;;5.90;4.22;;;;;;;;;;4970435;28;20049;-79
2022/11/01 13:10:51;;;;;;;7.95;4.60;;;;;;;;;;4955708;29;20030;-79
2022/11/01 13:13:22;;;;;;;6.85;4.68;;;;;;;;;;4938084;29;20019;-78
2022/11/01 13:15:57;;;;;;;7.60;4.60;;;;;;;;;;4955637;29;20038;-78
2022/11/01 13:18:32;;;;;;;4.45;4.05;;;;;;;;;;4954544;29;20023;-78
2022/11/01 13:20:58;;;;;;;8.07;4.80;;;;;;;;;;4969904;28;20196;-78
2022/11/01 13:23:30;;;;;;;7.47;5.18;;;;;;;;;;4955285;28;20034;-79
2022/11/01 13:26:04;;;;;;;6.22;3.92;;;;;;;;;;4955229;28;20062;-78
2022/11/01 13:28:39;;;;;;;8.45;5.35;;;;;;;;;;4956454;28;20034;-78
2022/11/01 13:31:38;;;;;;;9.63;4.57;;;;;;;;;;4957158;29;20031;-78
2022/11/01 13:34:27;;;;;;;8.90;5.40;;;;;;;;;;4957526;28;20530;-77
2022/11/01 13:36:58;;;;;;;10.00;4.88;;;;;;;;;;4973566;28;20035;-77
2022/11/01 13:39:43;;;;;;;8.50;4.78;;;;;;;;;;4957202;29;20476;-77
2022/11/01 13:42:17;;;;;;;9.70;4.25;;;;;;;;;;4989387;28;20039;-78
2022/11/01 13:44:46;;;;;;;9.13;4.85;;;;;;;;;;4958484;29;20482;-77
2022/11/01 13:47:27;;;;;;;9.57;4.40;;;;;;;;;;4958198;28;20051;-77
2022/11/01 13:50:16;;;;;;;6.38;4.68;;;;;;;;;;4989086;28;20051;-78
2022/11/01 13:52:45;;;;;;;5.63;4.28;;;;;;;;;;4957644;28;20047;-78
2022/11/01 13:55:20;;;;;;;8.00;4.50;;;;;;;;;;4956843;28;20106;-77
2022/11/01 13:57:45;;;;;;;7.00;5.03;;;;;;;;;;4973049;28;20042;-77
2022/11/01 14:00:29;;;;;;;6.35;4.65;;;;;;;;;;4988885;28;20028;-78
2022/11/01 14:02:56;;;;;;;6.82;4.82;;;;;;;;;;4956505;29;20023;-78
2022/11/01 14:05:33;;;;;;;6.63;4.95;;;;;;;;;;4956811;29;20456;-78
2022/11/01 14:08:01;;;;;;;6.40;4.75;;;;;;;;;;4972583;28;20057;-78
2022/11/01 14:10:27;;;;;;;12.40;5.90;;;;;;;;;;4988724;28;20395;-78
2022/11/01 14:12:55;;;;;;;5.30;4.25;;;;;;;;;;4989434;28;20035;-78
2022/11/01 14:15:25;;;;;;;6.35;4.72;;;;;;;;;;4972724;28;20464;-78
2022/11/01 14:17:51;;;;;;;5.43;4.50;;;;;;;;;;4957792;28;20036;-78
2022/11/01 14:20:27;;;;;;;5.13;4.18;;;;;;;;;;4956187;29;20079;-78
2022/11/01 14:23:04;;;;;;;6.07;4.22;;;;;;;;;;5001576;23;20031;-78
2022/11/01 14:25:31;;;;;;;7.75;4.47;;;;;;;;;;4938768;29;20546;-78
2022/11/01 14:28:15;;;;;;;7.43;4.75;;;;;;;;;;4974947;28;20034;-78
2022/11/01 14:30:43;;;;;;;6.72;4.93;;;;;;;;;;4963531;29;20035;-78
2022/11/01 14:33:12;;;;;;;6.13;4.38;;;;;;;;;;4964769;29;20086;-78
2022/11/01 14:35:39;;;;;;;8.32;4.95;;;;;;;;;;4981220;23;20766;-78
2022/11/01 14:38:24;;;;;;;7.65;4.65;;;;;;;;;;5033826;28;20473;-78
2022/11/01 14:40:54;;;;;;;6.05;4.35;;;;;;;;;;5035402;28;20068;-77
2022/11/01 14:43:21;;;;;;;6.22;4.18;;;;;;;;;;5035381;28;20025;-77
2022/11/01 14:46:07;;;;;;;9.48;4.72;;;;;;;;;;5035524;28;20056;-77